createdAt,value
2015-05-20T00:00:05.658Z,95254
2015-05-20T00:00:24.095Z,95248
2015-05-20T00:00:42.470Z,95251
2015-05-20T00:01:00.894Z,95245
2015-05-20T00:01:19.363Z,95239
2015-05-20T00:01:37.879Z,95247
2015-05-20T00:01:56.350Z,95253
2015-05-20T00:02:15.022Z,95244
2015-05-20T00:02:33.616Z,95247
2015-05-20T00:02:52.368Z,95244
2015-05-20T00:03:10.759Z,95249
2015-05-20T00:03:29.274Z,95252
2015-05-20T00:03:48.040Z,95246
2015-05-20T00:04:06.512Z,95254
2015-05-20T00:04:24.949Z,95257
2015-05-20T00:04:43.371Z,95251
2015-05-20T00:05:01.762Z,95251
2015-05-20T00:05:20.170Z,95251
2015-05-20T00:05:38.920Z,95260
2015-05-20T00:05:57.436Z,95251
2015-05-20T00:06:15.954Z,95251
2015-05-20T00:06:34.392Z,95249
2015-05-20T00:06:52.860Z,95246
2015-05-20T00:07:11.532Z,95244
2015-05-20T00:07:29.972Z,95258
2015-05-20T00:07:48.409Z,95253
2015-05-20T00:08:06.925Z,95245
2015-05-20T00:08:25.444Z,95251
2015-05-20T00:08:44.084Z,95254
2015-05-20T00:09:02.537Z,95254
2015-05-20T00:09:20.975Z,95252
2015-05-20T00:09:39.367Z,95254
2015-05-20T00:09:57.774Z,95243
2015-05-20T00:10:16.242Z,95245
2015-05-20T00:10:34.698Z,95242
2015-05-20T00:10:53.323Z,95248
2015-05-20T00:11:11.744Z,95242
2015-05-20T00:11:30.182Z,95242
2015-05-20T00:11:48.576Z,95250
2015-05-20T00:12:06.982Z,95250
2015-05-20T00:12:25.388Z,95246
2015-05-20T00:12:43.781Z,95252
2015-05-20T00:13:02.171Z,95249
2015-05-20T00:13:20.718Z,95243
2015-05-20T00:13:39.312Z,95242
2015-05-20T00:13:57.753Z,95260
2015-05-20T00:14:16.160Z,95239
2015-05-20T00:14:34.566Z,95256
2015-05-20T00:14:53.177Z,95248
2015-05-20T00:15:11.709Z,95242
2015-05-20T00:15:30.193Z,95245
2015-05-20T00:15:48.584Z,95253
2015-05-20T00:16:07.102Z,95253
2015-05-20T00:16:25.383Z,95250
2015-05-20T00:16:43.774Z,95247
2015-05-20T00:17:02.151Z,95244
2015-05-20T00:17:20.573Z,95246
2015-05-20T00:17:38.979Z,95246
2015-05-20T00:17:57.510Z,95243
2015-05-20T00:18:15.982Z,95255
2015-05-20T00:18:34.717Z,95254
2015-05-20T00:18:53.342Z,95243
2015-05-20T00:19:11.811Z,95254
2015-05-20T00:19:30.233Z,95254
2015-05-20T00:19:48.655Z,95257
2015-05-20T00:20:07.046Z,95251
2015-05-20T00:20:25.439Z,95254
2015-05-20T00:20:43.846Z,95248
2015-05-20T00:21:02.236Z,95251
2015-05-20T00:21:20.660Z,95254
2015-05-20T00:21:39.160Z,95248
2015-05-20T00:21:57.566Z,95254
2015-05-20T00:22:16.113Z,95259
2015-05-20T00:22:34.694Z,95254
2015-05-20T00:22:53.288Z,95251
2015-05-20T00:23:11.772Z,95251
2015-05-20T00:23:30.182Z,95251
2015-05-20T00:23:48.666Z,95242
2015-05-20T00:24:07.088Z,95239
2015-05-20T00:24:25.525Z,95248
2015-05-20T00:24:43.918Z,95248
2015-05-20T00:25:02.449Z,95253
2015-05-20T00:25:20.918Z,95248
2015-05-20T00:25:39.687Z,95259
2015-05-20T00:25:58.062Z,95242
2015-05-20T00:26:16.593Z,95244
2015-05-20T00:26:34.984Z,95239
2015-05-20T00:26:53.470Z,95250
2015-05-20T00:27:11.845Z,95244
2015-05-20T00:27:30.376Z,95241
2015-05-20T00:27:48.800Z,95252
2015-05-20T00:28:07.206Z,95249
2015-05-20T00:28:25.628Z,95241
2015-05-20T00:28:44.081Z,95238
2015-05-20T00:29:02.537Z,95243
2015-05-20T00:29:21.100Z,95246
2015-05-20T00:29:39.506Z,95243
2015-05-20T00:29:57.899Z,95249
2015-05-20T00:30:16.352Z,95243
2015-05-20T00:30:34.743Z,95248
2015-05-20T00:30:53.180Z,95246
2015-05-20T00:31:12.042Z,95246
2015-05-20T00:31:30.511Z,95248
2015-05-20T00:31:48.902Z,95243
2015-05-20T00:32:07.295Z,95243
2015-05-20T00:32:25.795Z,95249
2015-05-20T00:32:44.295Z,95240
2015-05-20T00:33:03.077Z,95249
2015-05-20T00:33:21.501Z,95237
2015-05-20T00:33:40.219Z,95237
2015-05-20T00:33:58.672Z,95251
2015-05-20T00:34:17.129Z,95249
2015-05-20T00:34:35.504Z,95243
2015-05-20T00:34:53.988Z,95234
2015-05-20T00:35:12.410Z,95234
2015-05-20T00:35:30.787Z,95246
2015-05-20T00:35:49.240Z,95234
2015-05-20T00:36:07.662Z,95234
2015-05-20T00:36:26.039Z,95246
2015-05-20T00:36:44.414Z,95235
2015-05-20T00:37:02.836Z,95240
2015-05-20T00:37:21.336Z,95229
2015-05-20T00:37:39.979Z,95237
2015-05-20T00:37:58.417Z,95234
2015-05-20T00:38:16.792Z,95226
2015-05-20T00:38:35.248Z,95237
2015-05-20T00:38:53.654Z,95231
2015-05-20T00:39:12.310Z,95226
2015-05-20T00:39:30.779Z,95237
2015-05-20T00:39:49.187Z,95231
2015-05-20T00:40:07.641Z,95235
2015-05-20T00:40:26.187Z,95237
2015-05-20T00:40:44.596Z,95226
2015-05-20T00:41:03.033Z,95231
2015-05-20T00:41:21.643Z,95229
2015-05-20T00:41:40.205Z,95231
2015-05-20T00:41:58.786Z,95231
2015-05-20T00:42:17.333Z,95231
2015-05-20T00:42:35.755Z,95237
2015-05-20T00:42:54.414Z,95237
2015-05-20T00:43:13.008Z,95231
2015-05-20T00:43:31.539Z,95226
2015-05-20T00:43:50.039Z,95240
2015-05-20T00:44:09.869Z,95225
2015-05-20T00:44:28.338Z,95223
2015-05-20T00:44:46.838Z,95234
2015-05-20T00:45:05.497Z,95234
2015-05-20T00:45:24.091Z,95234
2015-05-20T00:45:42.466Z,95234
2015-05-20T00:46:01.029Z,95228
2015-05-20T00:46:19.593Z,95228
2015-05-20T00:46:38.312Z,95222
2015-05-20T00:46:56.702Z,95225
2015-05-20T00:47:15.079Z,95234
2015-05-20T00:47:33.533Z,95225
2015-05-20T00:47:51.954Z,95236
2015-05-20T00:48:10.376Z,95228
2015-05-20T00:48:28.926Z,95236
2015-05-20T00:48:47.489Z,95222
2015-05-20T00:49:06.145Z,95236
2015-05-20T00:49:24.538Z,95225
2015-05-20T00:49:42.928Z,95236
2015-05-20T00:50:01.663Z,95231
2015-05-20T00:50:20.038Z,95231
2015-05-20T00:50:38.447Z,95233
2015-05-20T00:50:56.853Z,95228
2015-05-20T00:51:15.384Z,95228
2015-05-20T00:51:33.919Z,95228
2015-05-20T00:51:52.544Z,95231
2015-05-20T00:52:10.934Z,95228
2015-05-20T00:52:29.387Z,95230
2015-05-20T00:52:47.795Z,95242
2015-05-20T00:53:06.201Z,95227
2015-05-20T00:53:24.591Z,95236
2015-05-20T00:53:43.032Z,95239
2015-05-20T00:54:01.438Z,95239
2015-05-20T00:54:19.907Z,95236
2015-05-20T00:54:38.376Z,95236
2015-05-20T00:54:56.785Z,95227
2015-05-20T00:55:15.238Z,95227
2015-05-20T00:55:34.082Z,95233
2015-05-20T00:55:51.803Z,95230
2015-05-20T00:56:10.224Z,95233
2015-05-20T00:56:28.599Z,95236
2015-05-20T00:56:47.068Z,95236
2015-05-20T00:57:05.462Z,95239
2015-05-20T00:57:23.993Z,95231
2015-05-20T00:57:42.431Z,95231
2015-05-20T00:58:00.854Z,95239
2015-05-20T00:58:19.276Z,95236
2015-05-20T00:58:37.979Z,95234
2015-05-20T00:58:56.433Z,95234
2015-05-20T00:59:14.810Z,95239
2015-05-20T00:59:33.388Z,95234
2015-05-20T00:59:51.903Z,95234
2015-05-20T01:00:10.422Z,95231
2015-05-20T01:00:29.078Z,95231
2015-05-20T01:00:47.594Z,95234
2015-05-20T01:01:06.047Z,95237
2015-05-20T01:01:24.519Z,95240
2015-05-20T01:01:42.894Z,95231
2015-05-20T01:02:01.300Z,95231
2015-05-20T01:02:19.724Z,95240
2015-05-20T01:02:38.146Z,95231
2015-05-20T01:02:56.552Z,95237
2015-05-20T01:03:15.208Z,95228
2015-05-20T01:03:33.461Z,95231
2015-05-20T01:03:51.930Z,95231
2015-05-20T01:04:10.321Z,95234
2015-05-20T01:04:28.713Z,95220
2015-05-20T01:04:47.354Z,95231
2015-05-20T01:05:05.729Z,95234
2015-05-20T01:05:24.182Z,95219
2015-05-20T01:05:42.715Z,95222
2015-05-20T01:06:01.090Z,95222
2015-05-20T01:06:19.496Z,95228
2015-05-20T01:06:37.921Z,95225
2015-05-20T01:06:56.296Z,95223
2015-05-20T01:07:14.828Z,95223
2015-05-20T01:07:33.265Z,95225
2015-05-20T01:07:51.643Z,95217
2015-05-20T01:08:10.096Z,95223
2015-05-20T01:08:28.518Z,95226
2015-05-20T01:08:46.911Z,95223
2015-05-20T01:09:05.426Z,95220
2015-05-20T01:09:23.786Z,95229
2015-05-20T01:09:42.364Z,95226
2015-05-20T01:10:00.975Z,95220
2015-05-20T01:10:19.413Z,95223
2015-05-20T01:10:37.944Z,95223
2015-05-20T01:10:56.509Z,95221
2015-05-20T01:11:15.056Z,95221
2015-05-20T01:11:33.431Z,95221
2015-05-20T01:11:51.806Z,95218
2015-05-20T01:12:10.340Z,95223
2015-05-20T01:12:28.902Z,95221
2015-05-20T01:12:47.465Z,95224
2015-05-20T01:13:05.858Z,95218
2015-05-20T01:13:24.421Z,95215
2015-05-20T01:13:42.936Z,95227
2015-05-20T01:14:01.327Z,95221
2015-05-20T01:14:19.720Z,95224
2015-05-20T01:14:38.298Z,95218
2015-05-20T01:14:56.720Z,95218
2015-05-20T01:15:15.098Z,95224
2015-05-20T01:15:33.582Z,95218
2015-05-20T01:15:52.113Z,95212
2015-05-20T01:16:10.613Z,95215
2015-05-20T01:16:29.037Z,95218
2015-05-20T01:16:47.459Z,95218
2015-05-20T01:17:06.100Z,95218
2015-05-20T01:17:24.478Z,95212
2015-05-20T01:17:42.884Z,95215
2015-05-20T01:18:01.353Z,95215
2015-05-20T01:18:19.899Z,95215
2015-05-20T01:18:38.339Z,95215
2015-05-20T01:18:56.980Z,95224
2015-05-20T01:19:15.370Z,95219
2015-05-20T01:19:33.889Z,95219
2015-05-20T01:19:52.404Z,95216
2015-05-20T01:20:11.233Z,95224
2015-05-20T01:20:29.688Z,95216
2015-05-20T01:20:48.250Z,95219
2015-05-20T01:21:06.656Z,95216
2015-05-20T01:21:25.235Z,95219
2015-05-20T01:21:43.877Z,95224
2015-05-20T01:22:02.330Z,95216
2015-05-20T01:22:20.783Z,95221
2015-05-20T01:22:39.330Z,95213
2015-05-20T01:22:57.802Z,95213
2015-05-20T01:23:16.224Z,95219
2015-05-20T01:23:34.693Z,95216
2015-05-20T01:23:53.163Z,95225
2015-05-20T01:24:11.554Z,95219
2015-05-20T01:24:30.117Z,95213
2015-05-20T01:24:48.695Z,95213
2015-05-20T01:25:07.307Z,95219
2015-05-20T01:25:25.745Z,95216
2015-05-20T01:25:44.213Z,95213
2015-05-20T01:26:02.685Z,95222
2015-05-20T01:26:21.060Z,95222
2015-05-20T01:26:39.529Z,95224
2015-05-20T01:26:58.263Z,95233
2015-05-20T01:27:16.672Z,95213
2015-05-20T01:27:35.063Z,95227
2015-05-20T01:27:53.594Z,95213
2015-05-20T01:28:12.096Z,95233
2015-05-20T01:28:30.659Z,95219
2015-05-20T01:28:49.096Z,95230
2015-05-20T01:29:07.768Z,95227
2015-05-20T01:29:25.833Z,95233
2015-05-20T01:29:44.520Z,95218
2015-05-20T01:30:02.911Z,95224
2015-05-20T01:30:21.522Z,95227
2015-05-20T01:30:39.913Z,95221
2015-05-20T01:30:58.444Z,95233
2015-05-20T01:31:16.944Z,95230
2015-05-20T01:31:35.791Z,95221
2015-05-20T01:31:54.197Z,95224
2015-05-20T01:32:12.666Z,95224
2015-05-20T01:32:31.278Z,95219
2015-05-20T01:32:49.763Z,95216
2015-05-20T01:33:08.169Z,95219
2015-05-20T01:33:26.809Z,95222
2015-05-20T01:33:45.436Z,95216
2015-05-20T01:34:04.046Z,95225
2015-05-20T01:34:22.655Z,95228
2015-05-20T01:34:41.143Z,95225
2015-05-20T01:34:59.721Z,95216
2015-05-20T01:35:18.236Z,95219
2015-05-20T01:35:36.814Z,95216
2015-05-20T01:35:55.270Z,95222
2015-05-20T01:36:13.738Z,95225
2015-05-20T01:36:32.301Z,95225
2015-05-20T01:36:51.006Z,95222
2015-05-20T01:37:09.537Z,95222
2015-05-20T01:37:27.928Z,95222
2015-05-20T01:37:46.522Z,95219
2015-05-20T01:38:05.196Z,95219
2015-05-20T01:38:23.775Z,95213
2015-05-20T01:38:42.228Z,95233
2015-05-20T01:39:00.839Z,95225
2015-05-20T01:39:19.495Z,95224
2015-05-20T01:39:37.870Z,95219
2015-05-20T01:39:56.511Z,95221
2015-05-20T01:40:15.139Z,95213
2015-05-20T01:40:33.561Z,95213
2015-05-20T01:40:52.030Z,95221
2015-05-20T01:41:10.500Z,95219
2015-05-20T01:41:28.969Z,95216
2015-05-20T01:41:47.438Z,95222
2015-05-20T01:42:06.016Z,95224
2015-05-20T01:42:24.441Z,95224
2015-05-20T01:42:42.831Z,95221
2015-05-20T01:43:01.378Z,95221
2015-05-20T01:43:19.881Z,95224
2015-05-20T01:43:38.459Z,95219
2015-05-20T01:43:56.991Z,95221
2015-05-20T01:44:15.491Z,95224
2015-05-20T01:44:33.930Z,95207
2015-05-20T01:44:52.477Z,95224
2015-05-20T01:45:11.086Z,95215
2015-05-20T01:45:29.855Z,95224
2015-05-20T01:45:48.683Z,95221
2015-05-20T01:46:07.261Z,95218
2015-05-20T01:46:25.670Z,95221
2015-05-20T01:46:44.170Z,95223
2015-05-20T01:47:02.545Z,95221
2015-05-20T01:47:21.045Z,95229
2015-05-20T01:47:39.468Z,95215
2015-05-20T01:47:57.875Z,95221
2015-05-20T01:48:16.453Z,95223
2015-05-20T01:48:35.047Z,95232
2015-05-20T01:48:53.784Z,95226
2015-05-20T01:49:12.315Z,95232
2015-05-20T01:49:31.003Z,95212
2015-05-20T01:49:49.584Z,95221
2015-05-20T01:50:08.006Z,95224
2015-05-20T01:50:26.443Z,95227
2015-05-20T01:50:45.084Z,95224
2015-05-20T01:51:03.570Z,95222
2015-05-20T01:51:22.070Z,95222
2015-05-20T01:51:40.773Z,95227
2015-05-20T01:51:59.401Z,95230
2015-05-20T01:52:17.901Z,95225
2015-05-20T01:52:36.448Z,95228
2015-05-20T01:52:55.215Z,95222
2015-05-20T01:53:13.668Z,95222
2015-05-20T01:53:32.121Z,95228
2015-05-20T01:53:50.637Z,95231
2015-05-20T01:54:09.188Z,95214
2015-05-20T01:54:27.625Z,95225
2015-05-20T01:54:46.078Z,95225
2015-05-20T01:55:04.578Z,95219
2015-05-20T01:55:23.315Z,95219
2015-05-20T01:55:41.736Z,95219
2015-05-20T01:56:00.377Z,95219
2015-05-20T01:56:18.771Z,95220
2015-05-20T01:56:37.536Z,95225
2015-05-20T01:56:56.161Z,95214
2015-05-20T01:57:14.552Z,95214
2015-05-20T01:57:33.038Z,95222
2015-05-20T01:57:51.695Z,95220
2015-05-20T01:58:10.179Z,95225
2015-05-20T01:58:28.651Z,95220
2015-05-20T01:58:47.119Z,95220
2015-05-20T01:59:05.573Z,95228
2015-05-20T01:59:24.057Z,95214
2015-05-20T01:59:42.653Z,95214
2015-05-20T02:00:01.184Z,95217
2015-05-20T02:00:19.762Z,95217
2015-05-20T02:00:38.311Z,95203
2015-05-20T02:00:56.702Z,95214
2015-05-20T02:01:15.233Z,95206
2015-05-20T02:01:33.686Z,95208
2015-05-20T02:01:52.392Z,95217
2015-05-20T02:02:11.080Z,95205
2015-05-20T02:02:29.517Z,95211
2015-05-20T02:02:48.269Z,95208
2015-05-20T02:03:06.785Z,95205
2015-05-20T02:03:25.441Z,95202
2015-05-20T02:03:43.881Z,95195
2015-05-20T02:04:02.381Z,95202
2015-05-20T02:04:20.788Z,95205
2015-05-20T02:04:39.288Z,95189
2015-05-20T02:04:58.072Z,95194
2015-05-20T02:05:16.697Z,95189
2015-05-20T02:05:35.384Z,95189
2015-05-20T02:05:54.215Z,95194
2015-05-20T02:06:12.793Z,95194
2015-05-20T02:06:31.246Z,95189
2015-05-20T02:06:49.621Z,95177
2015-05-20T02:07:08.108Z,95186
2015-05-20T02:07:26.499Z,95180
2015-05-20T02:07:44.905Z,95188
2015-05-20T02:08:03.436Z,95186
2015-05-20T02:08:21.829Z,95189
2015-05-20T02:08:40.391Z,95183
2015-05-20T02:08:58.829Z,95180
2015-05-20T02:09:17.315Z,95186
2015-05-20T02:09:35.722Z,95183
2015-05-20T02:09:54.284Z,95180
2015-05-20T02:10:12.284Z,95197
2015-05-20T02:10:30.693Z,95186
2015-05-20T02:10:49.131Z,95181
2015-05-20T02:11:07.553Z,95183
2015-05-20T02:11:26.071Z,95181
2015-05-20T02:11:44.587Z,95181
2015-05-20T02:12:03.415Z,95184
2015-05-20T02:12:21.808Z,95184
2015-05-20T02:12:40.448Z,95176
2015-05-20T02:12:58.855Z,95188
2015-05-20T02:13:17.276Z,95185
2015-05-20T02:13:35.763Z,95188
2015-05-20T02:13:54.372Z,95182
2015-05-20T02:14:12.857Z,95185
2015-05-20T02:14:31.357Z,95182
2015-05-20T02:14:49.796Z,95190
2015-05-20T02:15:08.234Z,95191
2015-05-20T02:15:26.952Z,95191
2015-05-20T02:15:45.580Z,95191
2015-05-20T02:16:04.018Z,95196
2015-05-20T02:16:22.830Z,95201
2015-05-20T02:16:41.221Z,95210
2015-05-20T02:16:59.864Z,95194
2015-05-20T02:17:18.457Z,95210
2015-05-20T02:17:37.192Z,95204
2015-05-20T02:17:55.648Z,95213
2015-05-20T02:18:14.117Z,95207
2015-05-20T02:18:32.492Z,95218
2015-05-20T02:18:50.882Z,95213
2015-05-20T02:19:09.260Z,95213
2015-05-20T02:19:27.682Z,95210
2015-05-20T02:19:46.120Z,95212
2015-05-20T02:20:04.544Z,95207
2015-05-20T02:20:22.919Z,95212
2015-05-20T02:20:41.529Z,95212
2015-05-20T02:20:59.935Z,95218
2015-05-20T02:21:18.359Z,95220
2015-05-20T02:21:37.000Z,95221
2015-05-20T02:21:55.609Z,95218
2015-05-20T02:22:14.205Z,95215
2015-05-20T02:22:32.580Z,95218
2015-05-20T02:22:51.189Z,95221
2015-05-20T02:23:09.564Z,95218
2015-05-20T02:23:27.958Z,95206
2015-05-20T02:23:46.458Z,95215
2015-05-20T02:24:04.833Z,95209
2015-05-20T02:24:23.303Z,95212
2015-05-20T02:24:41.866Z,95209
2015-05-20T02:25:00.257Z,95206
2015-05-20T02:25:18.632Z,95221
2015-05-20T02:25:37.149Z,95209
2015-05-20T02:25:55.555Z,95203
2015-05-20T02:26:13.962Z,95218
2015-05-20T02:26:32.371Z,95218
2015-05-20T02:26:50.965Z,95215
2015-05-20T02:27:09.418Z,95209
2015-05-20T02:27:27.793Z,95209
2015-05-20T02:27:46.202Z,95209
2015-05-20T02:28:04.640Z,95212
2015-05-20T02:28:23.249Z,95209
2015-05-20T02:28:41.705Z,95215
2015-05-20T02:29:00.080Z,95221
2015-05-20T02:29:18.471Z,95212
2015-05-20T02:29:36.908Z,95207
2015-05-20T02:29:55.301Z,95207
2015-05-20T02:30:13.895Z,95207
2015-05-20T02:30:32.410Z,95213
2015-05-20T02:30:50.818Z,95213
2015-05-20T02:31:09.225Z,95204
2015-05-20T02:31:27.881Z,95204
2015-05-20T02:31:46.350Z,95213
2015-05-20T02:32:04.758Z,95207
2015-05-20T02:32:23.227Z,95207
2015-05-20T02:32:41.695Z,95207
2015-05-20T02:33:00.136Z,95207
2015-05-20T02:33:18.683Z,95215
2015-05-20T02:33:37.183Z,95210
2015-05-20T02:33:55.636Z,95213
2015-05-20T02:34:14.217Z,95213
2015-05-20T02:34:32.639Z,95207
2015-05-20T02:34:51.233Z,95207
2015-05-20T02:35:09.891Z,95216
2015-05-20T02:35:28.360Z,95218
2015-05-20T02:35:46.844Z,95210
2015-05-20T02:36:05.344Z,95218
2015-05-20T02:36:23.941Z,95213
2015-05-20T02:36:42.441Z,95213
2015-05-20T02:37:01.035Z,95210
2015-05-20T02:37:19.458Z,95221
2015-05-20T02:37:38.177Z,95215
2015-05-20T02:37:56.740Z,95218
2015-05-20T02:38:15.273Z,95210
2015-05-20T02:38:33.679Z,95212
2015-05-20T02:38:52.195Z,95215
2015-05-20T02:39:10.570Z,95218
2015-05-20T02:39:29.198Z,95224
2015-05-20T02:39:47.713Z,95215
2015-05-20T02:40:06.401Z,95215
2015-05-20T02:40:24.779Z,95215
2015-05-20T02:40:43.404Z,95215
2015-05-20T02:41:01.920Z,95218
2015-05-20T02:41:20.545Z,95218
2015-05-20T02:41:39.031Z,95210
2015-05-20T02:41:57.406Z,95218
2015-05-20T02:42:15.922Z,95213
2015-05-20T02:42:34.328Z,95216
2015-05-20T02:42:52.720Z,95213
2015-05-20T02:43:11.158Z,95210
2015-05-20T02:43:29.611Z,95216
2015-05-20T02:43:48.161Z,95216
2015-05-20T02:44:06.614Z,95219
2015-05-20T02:44:25.177Z,95216
2015-05-20T02:44:43.552Z,95210
2015-05-20T02:45:02.085Z,95213
2015-05-20T02:45:20.538Z,95216
2015-05-20T02:45:38.960Z,95219
2015-05-20T02:45:57.463Z,95216
2015-05-20T02:46:15.978Z,95216
2015-05-20T02:46:34.557Z,95219
2015-05-20T02:46:53.137Z,95213
2015-05-20T02:47:11.715Z,95216
2015-05-20T02:47:30.090Z,95218
2015-05-20T02:47:48.559Z,95213
2015-05-20T02:48:07.030Z,95213
2015-05-20T02:48:25.483Z,95212
2015-05-20T02:48:44.046Z,95215
2015-05-20T02:49:02.421Z,95207
2015-05-20T02:49:20.657Z,95215
2015-05-20T02:49:39.314Z,95207
2015-05-20T02:49:57.689Z,95215
2015-05-20T02:50:16.067Z,95210
2015-05-20T02:50:34.551Z,95210
2015-05-20T02:50:53.051Z,95210
2015-05-20T02:51:11.535Z,95213
2015-05-20T02:51:30.022Z,95224
2015-05-20T02:51:48.522Z,95216
2015-05-20T02:52:07.209Z,95218
2015-05-20T02:52:25.790Z,95216
2015-05-20T02:52:44.165Z,95218
2015-05-20T02:53:02.540Z,95213
2015-05-20T02:53:21.103Z,95207
2015-05-20T02:53:39.542Z,95216
2015-05-20T02:53:58.261Z,95213
2015-05-20T02:54:16.870Z,95219
2015-05-20T02:54:35.358Z,95216
2015-05-20T02:54:53.733Z,95216
2015-05-20T02:55:12.155Z,95210
2015-05-20T02:55:30.655Z,95219
2015-05-20T02:55:49.032Z,95208
2015-05-20T02:56:07.407Z,95222
2015-05-20T02:56:25.829Z,95216
2015-05-20T02:56:44.472Z,95217
2015-05-20T02:57:02.847Z,95211
2015-05-20T02:57:21.222Z,95222
2015-05-20T02:57:39.597Z,95217
2015-05-20T02:57:57.990Z,95205
2015-05-20T02:58:16.427Z,95214
2015-05-20T02:58:35.037Z,95211
2015-05-20T02:58:53.726Z,95208
2015-05-20T02:59:12.101Z,95211
2015-05-20T02:59:30.882Z,95205
2015-05-20T02:59:49.304Z,95208
2015-05-20T03:00:07.854Z,95210
2015-05-20T03:00:26.307Z,95216
2015-05-20T03:00:44.854Z,95208
2015-05-20T03:01:03.420Z,95210
2015-05-20T03:01:21.857Z,95205
2015-05-20T03:01:40.232Z,95210
2015-05-20T03:01:58.748Z,95207
2015-05-20T03:02:17.265Z,95202
2015-05-20T03:02:35.812Z,95207
2015-05-20T03:02:54.219Z,95210
2015-05-20T03:03:12.580Z,95210
2015-05-20T03:03:30.986Z,95210
2015-05-20T03:03:49.377Z,95207
2015-05-20T03:04:07.767Z,95216
2015-05-20T03:04:26.161Z,95204
2015-05-20T03:04:44.786Z,95207
2015-05-20T03:05:03.364Z,95207
2015-05-20T03:05:21.789Z,95207
2015-05-20T03:05:40.289Z,95216
2015-05-20T03:05:58.727Z,95201
2015-05-20T03:06:17.102Z,95204
2015-05-20T03:06:35.604Z,95210
2015-05-20T03:06:53.994Z,95207
2015-05-20T03:07:11.791Z,95202
2015-05-20T03:07:30.278Z,95207
2015-05-20T03:07:48.732Z,95216
2015-05-20T03:08:07.310Z,95210
2015-05-20T03:08:25.888Z,95216
2015-05-20T03:08:44.421Z,95216
2015-05-20T03:09:03.093Z,95222
2015-05-20T03:09:21.655Z,95210
2015-05-20T03:09:40.126Z,95216
2015-05-20T03:09:58.564Z,95214
2015-05-20T03:10:16.954Z,95216
2015-05-20T03:10:35.470Z,95216
2015-05-20T03:10:53.957Z,95222
2015-05-20T03:11:12.348Z,95216
2015-05-20T03:11:30.770Z,95217
2015-05-20T03:11:49.147Z,95222
2015-05-20T03:12:07.522Z,95216
2015-05-20T03:12:25.897Z,95228
2015-05-20T03:12:44.350Z,95214
2015-05-20T03:13:02.744Z,95228
2015-05-20T03:13:21.322Z,95219
2015-05-20T03:13:39.775Z,95222
2015-05-20T03:13:58.464Z,95220
2015-05-20T03:14:17.089Z,95220
2015-05-20T03:14:35.464Z,95226
2015-05-20T03:14:53.855Z,95226
2015-05-20T03:15:12.280Z,95223
2015-05-20T03:15:30.889Z,95226
2015-05-20T03:15:49.295Z,95229
2015-05-20T03:16:07.688Z,95224
2015-05-20T03:16:26.063Z,95227
2015-05-20T03:16:44.516Z,95230
2015-05-20T03:17:02.985Z,95230
2015-05-20T03:17:21.425Z,95227
2015-05-20T03:17:39.863Z,95230
2015-05-20T03:17:58.269Z,95224
2015-05-20T03:18:16.678Z,95227
2015-05-20T03:18:35.444Z,95233
2015-05-20T03:18:54.053Z,95233
2015-05-20T03:19:12.509Z,95236
2015-05-20T03:19:30.946Z,95233
2015-05-20T03:19:49.368Z,95227
2015-05-20T03:20:07.884Z,95235
2015-05-20T03:20:26.261Z,95221
2015-05-20T03:20:44.761Z,95230
2015-05-20T03:21:03.292Z,95238
2015-05-20T03:21:21.761Z,95224
2015-05-20T03:21:40.154Z,95227
2015-05-20T03:21:58.576Z,95227
2015-05-20T03:22:17.060Z,95238
2015-05-20T03:22:35.453Z,95227
2015-05-20T03:22:53.828Z,95232
2015-05-20T03:23:12.297Z,95224
2015-05-20T03:23:30.812Z,95224
2015-05-20T03:23:49.299Z,95230
2015-05-20T03:24:07.877Z,95224
2015-05-20T03:24:26.314Z,95233
2015-05-20T03:24:44.880Z,95230
2015-05-20T03:25:03.286Z,95233
2015-05-20T03:25:21.833Z,95233
2015-05-20T03:25:40.411Z,95233
2015-05-20T03:25:59.117Z,95230
2015-05-20T03:26:17.680Z,95236
2015-05-20T03:26:36.055Z,95230
2015-05-20T03:26:54.480Z,95233
2015-05-20T03:27:13.152Z,95230
2015-05-20T03:27:31.605Z,95221
2015-05-20T03:27:50.073Z,95232
2015-05-20T03:28:08.497Z,95227
2015-05-20T03:28:26.919Z,95227
2015-05-20T03:28:45.529Z,95224
2015-05-20T03:29:03.999Z,95230
2015-05-20T03:29:22.577Z,95221
2015-05-20T03:29:40.968Z,95236
2015-05-20T03:29:59.359Z,95221
2015-05-20T03:30:17.736Z,95233
2015-05-20T03:30:36.392Z,95244
2015-05-20T03:30:54.861Z,95238
2015-05-20T03:31:13.254Z,95233
2015-05-20T03:31:31.707Z,95235
2015-05-20T03:31:50.176Z,95227
2015-05-20T03:32:08.567Z,95235
2015-05-20T03:32:27.256Z,95235
2015-05-20T03:32:45.725Z,95232
2015-05-20T03:33:04.397Z,95235
2015-05-20T03:33:22.869Z,95244
2015-05-20T03:33:41.244Z,95240
2015-05-20T03:34:00.041Z,95232
2015-05-20T03:34:18.605Z,95221
2015-05-20T03:34:37.246Z,95232
2015-05-20T03:34:55.652Z,95227
2015-05-20T03:35:14.074Z,95227
2015-05-20T03:35:32.639Z,95229
2015-05-20T03:35:51.280Z,95227
2015-05-20T03:36:09.749Z,95215
2015-05-20T03:36:28.217Z,95226
2015-05-20T03:36:46.766Z,95224
2015-05-20T03:37:05.188Z,95224
2015-05-20T03:37:23.782Z,95224
2015-05-20T03:37:42.426Z,95226
2015-05-20T03:38:00.926Z,95226
2015-05-20T03:38:19.410Z,95221
2015-05-20T03:38:37.785Z,95221
2015-05-20T03:38:56.366Z,95220
2015-05-20T03:39:14.835Z,95220
2015-05-20T03:39:33.444Z,95226
2015-05-20T03:39:52.118Z,95226
2015-05-20T03:40:09.931Z,95232
2015-05-20T03:40:28.212Z,95218
2015-05-20T03:40:46.618Z,95224
2015-05-20T03:41:05.168Z,95221
2015-05-20T03:41:23.809Z,95227
2015-05-20T03:41:42.277Z,95232
2015-05-20T03:42:00.732Z,95224
2015-05-20T03:42:19.498Z,95232
2015-05-20T03:42:38.014Z,95232
2015-05-20T03:42:56.514Z,95218
2015-05-20T03:43:14.938Z,95226
2015-05-20T03:43:33.375Z,95226
2015-05-20T03:43:51.766Z,95229
2015-05-20T03:44:10.362Z,95226
2015-05-20T03:44:28.909Z,95226
2015-05-20T03:44:47.456Z,95235
2015-05-20T03:45:05.909Z,95221
2015-05-20T03:45:24.411Z,95229
2015-05-20T03:45:43.099Z,95226
2015-05-20T03:46:01.474Z,95224
2015-05-20T03:46:19.914Z,95235
2015-05-20T03:46:38.461Z,95238
2015-05-20T03:46:56.852Z,95229
2015-05-20T03:47:15.367Z,95235
2015-05-20T03:47:33.963Z,95235
2015-05-20T03:47:52.354Z,95235
2015-05-20T03:48:10.901Z,95249
2015-05-20T03:48:29.310Z,95243
2015-05-20T03:48:47.716Z,95240
2015-05-20T03:49:06.216Z,95235
2015-05-20T03:49:24.622Z,95240
2015-05-20T03:49:43.328Z,95244
2015-05-20T03:50:01.843Z,95241
2015-05-20T03:50:20.374Z,95235
2015-05-20T03:50:38.767Z,95244
2015-05-20T03:50:57.251Z,95236
2015-05-20T03:51:15.673Z,95236
2015-05-20T03:51:34.064Z,95239
2015-05-20T03:51:52.537Z,95244
2015-05-20T03:52:11.037Z,95242
2015-05-20T03:52:29.818Z,95244
2015-05-20T03:52:48.257Z,95247
2015-05-20T03:53:06.711Z,95247
2015-05-20T03:53:25.226Z,95251
2015-05-20T03:53:43.742Z,95240
2015-05-20T03:54:02.259Z,95251
2015-05-20T03:54:20.713Z,95252
2015-05-20T03:54:39.369Z,95250
2015-05-20T03:54:57.809Z,95251
2015-05-20T03:55:16.419Z,95243
2015-05-20T03:55:34.981Z,95261
2015-05-20T03:55:53.718Z,95259
2015-05-20T03:56:12.264Z,95262
2015-05-20T03:56:30.639Z,95251
2015-05-20T03:56:49.014Z,95257
2015-05-20T03:57:07.549Z,95257
2015-05-20T03:57:26.236Z,95255
2015-05-20T03:57:44.767Z,95266
2015-05-20T03:58:03.363Z,95260